Euskara    
Meteorología y climatología de Navarra
Datos de la estación - Meteo Navarra

Estación de Eltzaburu GN

Altitud 588 m.


Datos desde el 23/02/2021 hasta el 24/02/2021 en horario solar
Los datos son PROVISIONALES

Anterior Página 1 de 1 Siguiente Descargar: Formato para Excel 2000 o superior   Formato csv   Formato para OpenOffice Calc
Fecha Temperatura Humedad relativa Radiación global Insolación Precipitación Vel. viento 10 m Vel. viento 10 m Dir. viento 10 m
°C % W/m² s l/m² m/s km/h °
23/02/2021 0:00 3.8 99 0.0 0 0.0 1.2 4.4 359
23/02/2021 0:10 4.0 99 0.0 0 0.0 0.6 2.2 356
23/02/2021 0:20 4.0 99 0.0 0 0.0 0.4 1.4 28
23/02/2021 0:30 4.0 98 0.0 0 0.1 0.6 2.1 86
23/02/2021 0:40 4.0 99 0.0 0 0.0 0.4 1.5 100
23/02/2021 0:50 3.7 98 0.0 0 0.0 0.2 0.9 67
23/02/2021 1:00 3.7 99 0.0 0 0.0 0.4 1.5 13
23/02/2021 1:10 3.5 99 0.0 0 0.0 0.6 2.0 6
23/02/2021 1:20 3.6 99 0.0 0 0.0 0.1 0.4 303
23/02/2021 1:30 3.8 99 0.0 0 0.0 0.6 2.0 348
23/02/2021 1:40 4.1 99 0.0 0 0.0 0.5 1.9 83
23/02/2021 1:50 4.4 99 0.0 0 0.0 0.4 1.4 173
23/02/2021 2:00 4.3 99 0.0 0 0.0 0.4 1.3 54
23/02/2021 2:10 4.6 99 0.0 0 0.0 0.4 1.4 100
23/02/2021 2:20 4.7 99 0.0 0 0.0 0.6 2.3 92
23/02/2021 2:30 4.8 99 0.0 0 0.0 0.8 2.9 102
23/02/2021 2:40 4.9 99 0.0 0 0.0 0.6 2.3 94
23/02/2021 2:50 5.1 99 0.0 0 0.0 0.6 2.3 102
23/02/2021 3:00 5.2 99 0.0 0 0.0 0.6 2.2 111
23/02/2021 3:10 5.3 99 0.0 0 0.0 0.5 1.9 115
23/02/2021 3:20 5.4 99 0.0 0 0.0 1.0 3.5 129
23/02/2021 3:30 5.5 99 0.0 0 0.0 0.9 3.3 129
23/02/2021 3:40 5.6 99 0.0 0 0.0 0.8 3.0 123
23/02/2021 3:50 5.6 99 0.0 0 0.0 1.3 4.8 141
23/02/2021 4:00 5.7 99 0.0 0 0.0 0.8 2.8 155
23/02/2021 4:10 5.7 99 0.0 0 0.0 1.5 5.4 177
23/02/2021 4:20 5.7 98 0.0 0 0.0 1.0 3.5 162
23/02/2021 4:30 5.9 98 0.0 0 0.0 2.1 7.6 169
23/02/2021 4:40 6.1 95 0.0 0 0.0 1.9 6.9 160
23/02/2021 4:50 6.2 93 0.0 0 0.0 1.4 4.9 144
23/02/2021 5:00 6.2 93 0.0 0 0.0 1.4 4.9 146
23/02/2021 5:10 6.2 93 0.0 0 0.0 1.3 4.6 135
23/02/2021 5:20 6.3 92 0.0 0 0.0 1.5 5.2 141
23/02/2021 5:30 6.4 92 0.0 0 0.0 2.0 7.0 158
23/02/2021 5:40 6.7 89 0.0 0 0.0 1.7 5.9 154
23/02/2021 5:50 6.7 88 0.0 0 0.0 3.0 10.9 172
23/02/2021 6:00 7.1 85 0.0 0 0.0 3.4 12.4 176
23/02/2021 6:10 7.0 86 0.0 0 0.0 2.0 7.1 167
23/02/2021 6:20 6.9 86 0.0 0 0.0 2.5 8.9 165
23/02/2021 6:30 6.8 87 0.0 0 0.0 2.1 7.5 153
23/02/2021 6:40 6.8 87 0.0 0 0.0 2.9 10.4 161
23/02/2021 6:50 6.6 87 0.0 0 0.0 4.2 15.3 178
23/02/2021 7:00 6.5 87 0.0 0 0.0 4.4 15.9 182
23/02/2021 7:10 6.6 86 0.0 0 0.0 3.6 12.9 179
23/02/2021 7:20 6.6 86 0.0 0 0.0 3.2 11.6 184
23/02/2021 7:30 6.5 86 12.3 0 0.0 3.3 11.7 166
23/02/2021 7:40 6.5 87 23.3 0 0.0 2.0 7.1 167
23/02/2021 7:50 6.6 87 38.0 0 0.0 2.6 9.2 180
23/02/2021 8:00 6.6 87 43.6 0 0.0 2.9 10.3 184
23/02/2021 8:10 6.6 87 56.0 0 0.0 1.7 5.9 158
23/02/2021 8:20 6.8 86 73.5 0 0.0 2.2 7.9 178
23/02/2021 8:30 7.0 85 69.9 0 0.0 2.1 7.4 178
23/02/2021 8:40 7.2 84 77.2 0 0.0 3.0 10.7 161
23/02/2021 8:50 7.4 83 94.8 0 0.0 4.0 14.5 173
23/02/2021 9:00 7.5 82 99.8 0 0.0 4.4 15.7 171
23/02/2021 9:10 7.6 83 104.4 0 0.0 4.0 14.5 165
23/02/2021 9:20 7.7 82 103.9 0 0.0 5.0 17.9 170
23/02/2021 9:30 7.8 81 141.2 0 0.0 5.3 19.0 171
23/02/2021 9:40 8.0 82 154.5 0 0.0 3.7 13.4 172
23/02/2021 9:50 8.2 82 180.4 28 0.0 3.6 13.0 175
23/02/2021 10:00 8.5 82 298.1 410 0.0 4.2 15.1 186
23/02/2021 10:10 8.8 82 407.4 600 0.0 5.2 18.8 185
23/02/2021 10:20 9.1 82 535.5 584 0.0 4.2 15.3 184
23/02/2021 10:30 9.7 79 521.9 508 0.0 4.9 17.7 175
23/02/2021 10:40 9.9 77 603.2 564 0.0 5.7 20.6 170
23/02/2021 10:50 10.5 73 592.7 546 0.0 4.6 16.6 162
23/02/2021 11:00 11.0 72 645.1 588 0.0 3.7 13.2 157
23/02/2021 11:10 11.2 71 641.8 594 0.0 3.5 12.6 161
23/02/2021 11:20 11.5 69 638.8 600 0.0 2.9 10.5 159
23/02/2021 11:30 11.8 68 647.8 600 0.0 2.9 10.4 160
23/02/2021 11:40 11.8 66 655.6 600 0.0 4.5 16.2 160
23/02/2021 11:50 11.7 66 666.4 600 0.0 4.8 17.4 162
23/02/2021 12:00 11.7 67 670.3 600 0.0 4.8 17.2 162
23/02/2021 12:10 11.8 66 680.3 600 0.0 5.6 20.3 164
23/02/2021 12:20 12.0 66 682.5 576 0.0 5.6 20.3 168
23/02/2021 12:30 12.3 65 682.8 594 0.0 4.5 16.2 162
23/02/2021 12:40 12.4 65 687.0 600 0.0 5.1 18.5 163
23/02/2021 12:50 12.5 64 680.2 582 0.0 5.5 19.6 160
23/02/2021 13:00 12.4 64 686.0 600 0.0 5.7 20.4 158
23/02/2021 13:10 12.6 63 677.0 600 0.0 4.6 16.4 154
23/02/2021 13:20 12.7 62 673.0 600 0.0 5.6 20.3 163
23/02/2021 13:30 12.9 61 660.5 600 0.0 5.3 18.9 166
23/02/2021 13:40 13.1 61 626.1 578 0.0 4.2 15.1 163
23/02/2021 13:50 13.1 60 566.5 530 0.0 4.9 17.6 159
23/02/2021 14:00 13.0 60 569.9 548 0.0 5.5 19.8 165
23/02/2021 14:10 13.1 60 508.4 496 0.0 5.3 19.2 157
23/02/2021 14:20 13.0 60 532.5 546 0.0 5.4 19.3 162
23/02/2021 14:30 13.2 61 525.1 558 0.0 5.2 18.6 172
23/02/2021 14:40 13.4 59 515.8 572 0.0 5.3 19.2 168
23/02/2021 14:50 13.4 59 441.2 490 0.0 5.5 19.9 172
23/02/2021 15:00 13.3 58 466.1 576 0.0 5.6 20.1 173
23/02/2021 15:10 13.1 58 253.1 244 0.0 6.4 23.1 172
23/02/2021 15:20 12.9 59 278.4 326 0.0 4.6 16.4 160
23/02/2021 15:30 12.7 60 244.0 300 0.0 3.9 13.9 158
23/02/2021 15:40 12.8 59 214.9 294 0.0 5.3 18.9 164
23/02/2021 15:50 12.8 60 237.3 356 0.0 4.7 16.9 160
23/02/2021 16:00 12.7 60 186.8 294 0.0 4.0 14.4 154
23/02/2021 16:10 12.5 60 109.6 112 0.0 3.7 13.4 157
23/02/2021 16:20 12.3 61 121.0 166 0.0 3.7 13.3 159
23/02/2021 16:30 12.7 59 194.9 538 0.0 3.3 11.7 157
23/02/2021 16:40 12.9 58 189.4 600 0.0 3.2 11.4 153
23/02/2021 16:50 12.8 59 144.1 600 0.0 2.9 10.4 154
23/02/2021 17:00 12.7 60 112.5 600 0.0 2.9 10.4 161
23/02/2021 17:10 12.5 60 86.3 600 0.0 3.0 10.7 158
23/02/2021 17:20 12.3 61 53.3 370 0.0 2.7 9.8 157
23/02/2021 17:30 11.9 61 22.0 4 0.0 2.7 9.9 160
23/02/2021 17:40 11.7 62 5.1 0 0.0 2.5 8.9 157
23/02/2021 17:50 11.6 63 0.0 0 0.0 2.5 9.0 157
23/02/2021 18:00 11.4 65 0.0 0 0.0 2.6 9.4 162
23/02/2021 18:10 11.2 67 0.0 0 0.0 2.4 8.7 160
23/02/2021 18:20 11.0 69 0.0 0 0.0 2.3 8.4 165
23/02/2021 18:30 11.1 68 0.0 0 0.0 2.2 7.8 157
23/02/2021 18:40 11.0 68 0.0 0 0.0 3.0 10.9 161
23/02/2021 18:50 11.0 69 0.0 0 0.0 2.0 7.2 156
23/02/2021 19:00 10.4 72 0.0 0 0.0 1.5 5.3 143
23/02/2021 19:10 9.9 74 0.0 0 0.0 1.2 4.3 151
23/02/2021 19:20 9.9 75 0.0 0 0.0 1.2 4.4 150
23/02/2021 19:30 9.6 76 0.0 0 0.0 1.2 4.2 149
23/02/2021 19:40 9.6 76 0.0 0 0.0 1.5 5.3 169
23/02/2021 19:50 9.7 75 0.0 0 0.0 1.6 5.7 175
23/02/2021 20:00 9.9 75 0.0 0 0.0 2.6 9.3 179
23/02/2021 20:10 10.2 73 0.0 0 0.0 3.0 10.9 173
23/02/2021 20:20 10.5 71 0.0 0 0.0 4.0 14.4 173
23/02/2021 20:30 10.6 71 0.0 0 0.0 3.4 12.1 170
23/02/2021 20:40 10.3 73 0.0 0 0.0 3.0 10.8 183
23/02/2021 20:50 10.1 74 0.0 0 0.0 2.2 8.1 196
23/02/2021 21:00 9.6 76 0.0 0 0.0 2.4 8.7 196
23/02/2021 21:10 9.5 76 0.0 0 0.0 2.8 10.0 191
23/02/2021 21:20 9.4 76 0.0 0 0.0 2.5 9.0 191
23/02/2021 21:30 9.1 77 0.0 0 0.0 2.2 8.0 196
23/02/2021 21:40 9.1 77 0.0 0 0.0 2.4 8.7 195
23/02/2021 21:50 9.0 78 0.0 0 0.0 2.6 9.2 191
23/02/2021 22:00 9.0 78 0.0 0 0.0 2.6 9.4 191
23/02/2021 22:10 9.2 77 0.0 0 0.0 2.8 9.9 187
23/02/2021 22:20 9.1 77 0.0 0 0.0 2.9 10.5 182
23/02/2021 22:30 9.3 75 0.0 0 0.0 3.7 13.5 181
23/02/2021 22:40 9.6 75 0.0 0 0.0 3.9 14.1 187
23/02/2021 22:50 9.4 75 0.0 0 0.0 3.4 12.3 186
23/02/2021 23:00 9.4 76 0.0 0 0.0 3.3 11.8 188
23/02/2021 23:10 9.3 77 0.0 0 0.0 3.1 11.1 187
23/02/2021 23:20 9.3 77 0.0 0 0.0 3.7 13.4 194
23/02/2021 23:30 9.2 77 0.0 0 0.0 3.4 12.4 201
23/02/2021 23:40 9.2 78 0.0 0 0.0 2.7 9.5 202
23/02/2021 23:50 9.0 79 0.0 0 0.0 2.7 9.5 206
Anterior Página 1 de 1 Siguiente

NOTA: Tipo de datos según el color:
   - Valores diarios o 10 minutos correctos
   - Valores diarios calculados a partir de un número de datos 10 minutos menor que 144 y mayor que 120, o de un número de datos semihorarios menor que 48 y mayor que 40 (caso de las estaciones de INTIA Y Ministerio)
   - Valores diez minutos estimados


Contacto        Enlaces        Aviso legal